Time;durP1;ratioP1;P1;durP2;ratioP2;P2;SDS_P1;SDS_P2;PMS_P1;PMS_P2;Temp;Humidity;BMP_temperature;BMP_pressure;BME280_temperature;BME280_humidity;BME280_pressure;Samples;Min_cycle;Max_cycle;Signal;HPM_P1;HPM_P2
2021/01/01 00:01:47;;;;;;;29.30;20.60;;;3.60;1.00;;;;;;5017421;28;20183;-60
2021/01/01 00:04:13;;;;;;;32.63;23.67;;;3.50;1.00;;;;;;5028275;28;20477;-60
2021/01/01 00:06:45;;;;;;;38.47;26.17;;;3.60;1.00;;;;;;5016363;28;20984;-58
2021/01/01 00:09:11;;;;;;;40.83;25.90;;;3.60;1.00;;;;;;5020462;28;20425;-60
2021/01/01 00:11:36;;;;;;;33.03;26.07;;;3.60;1.00;;;;;;5023425;28;20191;-60
2021/01/01 00:14:02;;;;;;;38.10;26.90;;;3.50;1.00;;;;;;5013694;28;20189;-59
2021/01/01 00:16:27;;;;;;;36.13;25.80;;;3.50;1.00;;;;;;5017695;28;20269;-57
2021/01/01 00:18:53;;;;;;;35.97;25.83;;;3.40;1.00;;;;;;5025196;28;20205;-60
2021/01/01 00:21:19;;;;;;;35.57;26.60;;;3.40;1.00;;;;;;5019812;28;20189;-59
2021/01/01 00:23:44;;;;;;;32.60;24.30;;;3.40;1.00;;;;;;5023851;28;20213;-60
2021/01/01 00:26:14;;;;;;;36.03;25.80;;;3.30;1.00;;;;;;5027410;28;20631;-60
2021/01/01 00:28:45;;;;;;;41.95;29.40;;;3.20;1.00;;;;;;5018883;28;20269;-60
2021/01/01 00:31:22;;;;;;;43.65;27.63;;;3.20;1.00;;;;;;5027485;28;20585;-60
2021/01/01 00:33:49;;;;;;;40.50;27.27;;;3.10;1.00;;;;;;5011659;28;20238;-59
2021/01/01 00:36:15;;;;;;;34.17;26.75;;;3.10;1.00;;;;;;5014412;28;20194;-59
2021/01/01 00:38:50;;;;;;;39.10;27.60;;;3.00;1.00;;;;;;5016645;28;20715;-60
2021/01/01 00:41:26;;;;;;;38.50;27.73;;;3.10;1.00;;;;;;5012648;28;20198;-56
2021/01/01 00:43:54;;;;;;;35.53;25.52;;;3.00;1.00;;;;;;5014660;28;20190;-59
2021/01/01 00:46:24;;;;;;;34.85;24.65;;;3.00;1.00;;;;;;5013925;28;20183;-59
2021/01/01 00:48:50;;;;;;;38.15;25.45;;;3.00;1.00;;;;;;5016914;28;20251;-59
2021/01/01 00:51:30;;;;;;;36.00;24.37;;;3.00;1.00;;;;;;5019412;28;20246;-59
2021/01/01 00:53:56;;;;;;;31.95;23.73;;;3.00;1.00;;;;;;5025785;28;20527;-59
2021/01/01 00:56:23;;;;;;;30.45;22.00;;;3.10;1.00;;;;;;5023689;28;20179;-59
2021/01/01 00:58:50;;;;;;;26.27;21.40;;;3.10;1.00;;;;;;5019492;28;20239;-59
2021/01/01 01:01:34;;;;;;;26.77;19.67;;;3.10;1.00;;;;;;5006285;28;20252;-60
2021/01/01 01:04:00;;;;;;;25.95;19.25;;;3.10;1.00;;;;;;5017157;28;20218;-60
2021/01/01 01:06:27;;;;;;;27.67;20.17;;;3.10;1.00;;;;;;5016721;28;20174;-59
2021/01/01 01:08:54;;;;;;;26.63;19.10;;;3.10;1.00;;;;;;5015433;28;20473;-60
2021/01/01 01:11:24;;;;;;;24.58;18.98;;;3.10;1.00;;;;;;5017688;28;20269;-60
2021/01/01 01:13:50;;;;;;;24.65;18.40;;;3.10;1.00;;;;;;5018931;28;20186;-60
2021/01/01 01:16:23;;;;;;;26.05;19.75;;;3.10;1.00;;;;;;5009869;28;20194;-60
2021/01/01 01:18:49;;;;;;;29.67;20.45;;;3.10;1.00;;;;;;5024419;28;20186;-59
2021/01/01 01:21:14;;;;;;;31.47;22.27;;;3.20;1.00;;;;;;5025213;28;20194;-60
2021/01/01 01:23:41;;;;;;;26.90;19.90;;;3.20;1.00;;;;;;5023784;28;20261;-60
2021/01/01 01:26:07;;;;;;;28.55;20.23;;;3.20;1.00;;;;;;5024931;28;20872;-60
2021/01/01 01:28:32;;;;;;;26.77;19.00;;;3.20;1.00;;;;;;5024127;28;20266;-58
2021/01/01 01:30:58;;;;;;;28.17;19.80;;;3.30;1.00;;;;;;5031570;28;20175;-59
2021/01/01 01:33:24;;;;;;;25.33;19.77;;;3.30;1.00;;;;;;5020581;28;20191;-60
2021/01/01 01:35:49;;;;;;;23.07;18.30;;;3.30;1.00;;;;;;5014310;28;20445;-57
2021/01/01 01:38:15;;;;;;;27.30;19.67;;;3.30;1.00;;;;;;5014689;28;20214;-58
2021/01/01 01:40:40;;;;;;;26.67;18.27;;;3.40;1.00;;;;;;5017102;28;20230;-60
2021/01/01 01:43:06;;;;;;;24.73;18.33;;;3.40;1.00;;;;;;5021097;28;20238;-59
2021/01/01 01:45:32;;;;;;;25.57;18.10;;;3.50;1.00;;;;;;5021696;28;20929;-60
2021/01/01 01:47:59;;;;;;;24.50;18.63;;;3.50;1.00;;;;;;5017901;28;20262;-60
2021/01/01 01:50:26;;;;;;;25.38;19.10;;;3.50;1.00;;;;;;5022107;28;20175;-59
2021/01/01 01:52:52;;;;;;;22.75;17.33;;;3.50;1.00;;;;;;5021692;28;20600;-59
2021/01/01 01:55:18;;;;;;;25.55;18.35;;;3.50;1.00;;;;;;5027313;28;20260;-59
2021/01/01 01:57:44;;;;;;;28.65;19.40;;;3.60;1.00;;;;;;5025960;28;20193;-60
2021/01/01 02:00:35;;;;;;;28.07;18.33;;;3.60;1.00;;;;;;5018997;28;20191;-59
2021/01/01 02:02:56;;;;;;;27.40;18.50;;;3.60;1.00;;;;;;5028587;28;20484;-59
2021/01/01 02:05:22;;;;;;;26.27;18.50;;;3.50;1.00;;;;;;5030169;28;20545;-59
2021/01/01 02:07:48;;;;;;;30.17;19.43;;;3.60;1.00;;;;;;5024118;28;20185;-59
2021/01/01 02:10:13;;;;;;;23.30;18.47;;;3.60;1.00;;;;;;5013409;28;20218;-59
2021/01/01 02:12:41;;;;;;;29.17;19.87;;;3.50;1.00;;;;;;5025736;28;20444;-60
2021/01/01 02:15:07;;;;;;;26.75;19.17;;;3.60;1.00;;;;;;5019476;28;20190;-59
2021/01/01 02:17:33;;;;;;;25.95;19.58;;;3.60;1.00;;;;;;5018253;28;20305;-59
2021/01/01 02:20:10;;;;;;;28.80;19.63;;;3.50;1.00;;;;;;5020179;28;20273;-59
2021/01/01 02:22:41;;;;;;;28.85;18.95;;;3.60;1.00;;;;;;5022885;28;20313;-59
2021/01/01 02:25:09;;;;;;;26.23;19.33;;;3.50;1.00;;;;;;5013353;28;20289;-59
2021/01/01 02:27:38;;;;;;;30.85;19.08;;;3.50;1.00;;;;;;5015312;28;20190;-59
2021/01/01 02:30:04;;;;;;;27.83;20.13;;;3.50;1.00;;;;;;5027656;28;20265;-59
2021/01/01 02:32:30;;;;;;;25.02;19.23;;;3.50;1.00;;;;;;5019355;28;20672;-58
2021/01/01 02:34:57;;;;;;;27.13;19.93;;;3.50;1.00;;;;;;5031411;28;20186;-57
2021/01/01 02:37:23;;;;;;;27.95;20.10;;;3.50;1.00;;;;;;5029736;28;20440;-60
2021/01/01 02:39:48;;;;;;;28.50;19.80;;;3.50;1.00;;;;;;5021942;28;20662;-57
2021/01/01 02:42:17;;;;;;;30.27;19.60;;;3.50;1.00;;;;;;5022650;28;20194;-58
2021/01/01 02:44:43;;;;;;;29.88;20.60;;;3.50;1.00;;;;;;5024794;28;20194;-59
2021/01/01 02:47:09;;;;;;;28.60;20.13;;;3.40;1.00;;;;;;5024060;28;20179;-59
2021/01/01 02:49:35;;;;;;;29.40;20.00;;;3.50;1.00;;;;;;5011844;28;20640;-59
2021/01/01 02:52:03;;;;;;;29.77;19.10;;;3.50;1.00;;;;;;5012133;28;20437;-60
2021/01/01 02:54:28;;;;;;;23.77;19.00;;;3.40;1.00;;;;;;5018643;28;20194;-60
2021/01/01 02:56:54;;;;;;;25.80;20.50;;;3.40;1.00;;;;;;5019487;28;20677;-58
2021/01/01 02:59:20;;;;;;;32.23;20.40;;;3.40;1.00;;;;;;5031807;28;20182;-59
2021/01/01 03:01:46;;;;;;;28.57;20.50;;;3.40;1.00;;;;;;5030052;28;20329;-59
2021/01/01 03:04:12;;;;;;;29.23;20.90;;;3.30;1.00;;;;;;5031496;28;20449;-59
2021/01/01 03:06:38;;;;;;;29.73;21.30;;;3.30;1.00;;;;;;5024587;28;20183;-59
2021/01/01 03:09:04;;;;;;;30.37;21.03;;;3.30;1.00;;;;;;5038619;28;20413;-59
2021/01/01 03:11:30;;;;;;;28.35;20.27;;;3.30;1.00;;;;;;5026512;28;20916;-60
2021/01/01 03:13:55;;;;;;;27.70;20.07;;;3.30;1.00;;;;;;5035092;28;20220;-60
2021/01/01 03:16:21;;;;;;;28.50;20.93;;;3.30;1.00;;;;;;5014881;28;20679;-59
2021/01/01 03:18:47;;;;;;;31.23;20.70;;;3.20;1.00;;;;;;5023870;28;20204;-59
2021/01/01 03:21:12;;;;;;;28.00;20.20;;;3.30;1.00;;;;;;5029263;28;20190;-59
2021/01/01 03:23:38;;;;;;;28.80;20.90;;;3.20;1.00;;;;;;5026241;28;20553;-60
2021/01/01 03:26:04;;;;;;;34.43;21.60;;;3.20;1.00;;;;;;5030981;28;20193;-59
2021/01/01 03:28:30;;;;;;;28.02;21.00;;;3.10;1.00;;;;;;5018802;28;20607;-59
2021/01/01 03:30:56;;;;;;;28.17;20.13;;;3.10;1.00;;;;;;5026096;28;20289;-58
2021/01/01 03:33:21;;;;;;;31.10;21.60;;;3.10;1.00;;;;;;5028794;28;20697;-59
2021/01/01 03:35:48;;;;;;;30.10;21.37;;;3.10;1.00;;;;;;5029586;28;20199;-59
2021/01/01 03:38:13;;;;;;;30.75;21.40;;;3.10;1.00;;;;;;5020362;28;20206;-59
2021/01/01 03:40:39;;;;;;;36.70;23.27;;;3.20;1.00;;;;;;5021085;28;20590;-59
2021/01/01 03:43:05;;;;;;;30.50;21.17;;;3.20;1.00;;;;;;5030215;28;20675;-59
2021/01/01 03:45:30;;;;;;;33.30;22.53;;;3.20;1.00;;;;;;5017827;28;20182;-59
2021/01/01 03:47:56;;;;;;;31.17;22.73;;;3.20;1.00;;;;;;5030801;28;20170;-60
2021/01/01 03:50:22;;;;;;;31.70;21.40;;;3.20;1.00;;;;;;5025771;28;20182;-60
2021/01/01 03:52:47;;;;;;;30.43;21.23;;;3.10;1.00;;;;;;5029707;28;20181;-60
2021/01/01 03:55:13;;;;;;;27.60;21.03;;;3.20;1.00;;;;;;5024584;28;20193;-59
2021/01/01 03:57:40;;;;;;;29.47;21.17;;;3.20;1.00;;;;;;5030451;28;20748;-59
2021/01/01 04:00:09;;;;;;;29.67;22.35;;;3.10;1.00;;;;;;5029422;28;20186;-59
2021/01/01 04:02:34;;;;;;;31.10;22.55;;;3.10;1.00;;;;;;5028917;28;20202;-59
2021/01/01 04:05:00;;;;;;;28.53;21.27;;;3.00;1.00;;;;;;5022818;28;20190;-60
2021/01/01 04:07:25;;;;;;;33.10;21.80;;;3.10;1.00;;;;;;5019131;28;20195;-60
2021/01/01 04:09:51;;;;;;;32.20;21.60;;;3.10;1.00;;;;;;5017130;28;20189;-59
2021/01/01 04:12:18;;;;;;;31.60;22.43;;;3.10;1.00;;;;;;5030304;28;20277;-58
2021/01/01 04:14:44;;;;;;;30.90;20.98;;;3.10;1.00;;;;;;5026430;28;20190;-58
2021/01/01 04:17:09;;;;;;;33.53;23.30;;;3.10;1.00;;;;;;5021039;28;20684;-59
2021/01/01 04:19:35;;;;;;;30.73;22.53;;;3.10;1.00;;;;;;5023184;28;20661;-59
2021/01/01 04:22:01;;;;;;;33.40;23.10;;;3.10;1.00;;;;;;5027090;28;20277;-60
2021/01/01 04:24:26;;;;;;;37.60;25.37;;;3.10;1.00;;;;;;5019320;28;20212;-60
2021/01/01 04:26:52;;;;;;;35.33;22.47;;;3.10;1.00;;;;;;5016154;28;20194;-60
2021/01/01 04:29:18;;;;;;;33.40;22.47;;;3.00;1.00;;;;;;5018596;28;20261;-59
2021/01/01 04:31:43;;;;;;;37.50;23.37;;;3.00;1.00;;;;;;5029985;28;20946;-60
2021/01/01 04:34:10;;;;;;;32.50;21.90;;;2.80;1.00;;;;;;5026468;28;20239;-60
2021/01/01 04:36:36;;;;;;;36.38;24.20;;;2.80;1.00;;;;;;5012915;28;20706;-60
2021/01/01 04:39:03;;;;;;;34.95;24.92;;;2.70;1.00;;;;;;5011893;28;20206;-60
2021/01/01 04:41:29;;;;;;;37.00;23.50;;;2.70;12.40;;;;;;5021591;28;20195;-59
2021/01/01 04:43:55;;;;;;;36.00;24.60;;;2.70;18.90;;;;;;5025399;28;20664;-60
2021/01/01 04:46:21;;;;;;;37.40;24.07;;;2.60;23.10;;;;;;5017998;28;21074;-58
2021/01/01 04:48:47;;;;;;;33.35;23.42;;;2.60;28.10;;;;;;5029779;28;20169;-59
2021/01/01 04:51:13;;;;;;;35.57;25.00;;;2.60;37.10;;;;;;5024183;28;20181;-59
2021/01/01 04:53:40;;;;;;;38.60;23.50;;;2.60;43.30;;;;;;5010040;28;20211;-60
2021/01/01 04:56:06;;;;;;;37.67;25.95;;;2.60;50.30;;;;;;5020350;28;20296;-59
2021/01/01 04:58:33;;;;;;;37.95;25.05;;;2.60;53.30;;;;;;5011246;28;20553;-58
2021/01/01 05:00:59;;;;;;;38.80;24.75;;;2.50;58.20;;;;;;5026882;28;20189;-59
2021/01/01 05:03:26;;;;;;;36.88;23.90;;;2.60;63.00;;;;;;5017366;28;20215;-59
2021/01/01 05:05:54;;;;;;;37.92;25.73;;;2.50;69.20;;;;;;5025045;28;20354;-59
2021/01/01 05:08:21;;;;;;;40.55;26.25;;;2.50;78.50;;;;;;5025910;28;20187;-59
2021/01/01 05:10:48;;;;;;;38.00;26.02;;;2.50;82.40;;;;;;5025739;28;20185;-61
2021/01/01 05:13:15;;;;;;;42.30;26.55;;;2.40;82.50;;;;;;5026758;28;20189;-58
2021/01/01 05:15:42;;;;;;;45.13;27.42;;;2.40;87.20;;;;;;5025557;28;20727;-59
2021/01/01 05:18:20;;;;;;;36.67;25.35;;;2.40;90.70;;;;;;5028720;28;20216;-59
2021/01/01 05:20:47;;;;;;;36.47;24.92;;;2.30;91.60;;;;;;5019928;28;20617;-59
2021/01/01 05:23:20;;;;;;;40.35;25.80;;;2.40;92.30;;;;;;5029129;28;20205;-60
2021/01/01 05:25:46;;;;;;;45.90;28.35;;;2.30;94.60;;;;;;5017758;28;20715;-60
2021/01/01 05:28:14;;;;;;;39.35;26.08;;;2.40;97.10;;;;;;5029172;28;20265;-60
2021/01/01 05:30:40;;;;;;;39.88;26.98;;;2.40;96.10;;;;;;5021403;28;20272;-59
2021/01/01 05:33:08;;;;;;;39.10;25.83;;;2.40;97.20;;;;;;5026570;28;20251;-59
2021/01/01 05:35:34;;;;;;;37.70;24.98;;;2.40;94.90;;;;;;5015481;28;20193;-59
2021/01/01 05:38:22;;;;;;;41.87;27.83;;;2.50;93.70;;;;;;5022833;28;20241;-58
2021/01/01 05:40:49;;;;;;;40.65;24.77;;;2.50;95.10;;;;;;5013992;28;21025;-59
2021/01/01 05:43:32;;;;;;;41.25;27.15;;;2.40;94.00;;;;;;5010007;28;20280;-60
2021/01/01 05:46:08;;;;;;;41.00;27.52;;;2.50;94.50;;;;;;5009334;28;20986;-59
2021/01/01 05:48:34;;;;;;;41.83;26.80;;;2.50;93.50;;;;;;5017688;28;20218;-58
2021/01/01 05:51:06;;;;;;;41.08;26.58;;;2.50;93.10;;;;;;5025069;28;20192;-58
2021/01/01 05:53:33;;;;;;;37.50;26.05;;;2.40;86.50;;;;;;5014282;28;20214;-59
2021/01/01 05:56:07;;;;;;;38.33;27.05;;;2.40;85.20;;;;;;5026546;28;20608;-59
2021/01/01 05:58:33;;;;;;;41.60;26.65;;;2.40;87.30;;;;;;5014048;28;20580;-58
2021/01/01 06:01:00;;;;;;;37.80;25.73;;;2.40;91.00;;;;;;5030410;28;20201;-60
2021/01/01 06:03:34;;;;;;;39.83;25.95;;;2.40;84.50;;;;;;5014234;28;20475;-59
2021/01/01 06:06:06;;;;;;;44.97;26.10;;;2.30;70.80;;;;;;5027379;28;20244;-60
2021/01/01 06:08:32;;;;;;;39.97;26.77;;;2.30;66.10;;;;;;5028831;28;20313;-59
2021/01/01 06:11:05;;;;;;;37.78;23.88;;;2.30;65.30;;;;;;5023996;28;20217;-60
2021/01/01 06:13:36;;;;;;;41.38;25.92;;;2.30;71.60;;;;;;5013230;28;20195;-59
2021/01/01 06:16:04;;;;;;;39.03;25.40;;;2.40;65.00;;;;;;5013511;28;20314;-59
2021/01/01 06:18:34;;;;;;;41.42;27.90;;;2.40;67.10;;;;;;5016665;28;20361;-61
2021/01/01 06:21:02;;;;;;;42.47;27.60;;;2.40;55.80;;;;;;5020570;28;20197;-60
2021/01/01 06:23:32;;;;;;;39.90;26.00;;;2.40;51.50;;;;;;5024364;28;20573;-60
2021/01/01 06:25:59;;;;;;;36.83;24.98;;;2.40;50.80;;;;;;5031136;28;20181;-61
2021/01/01 06:28:26;;;;;;;41.80;26.25;;;2.40;48.20;;;;;;5025288;28;20193;-60
2021/01/01 06:30:55;;;;;;;39.03;26.20;;;2.50;45.40;;;;;;5021099;28;20189;-60
2021/01/01 06:33:21;;;;;;;40.30;25.20;;;2.50;40.80;;;;;;5030120;28;20216;-59
2021/01/01 06:35:46;;;;;;;38.67;25.90;;;2.50;38.80;;;;;;5020012;28;20252;-60
2021/01/01 06:38:36;;;;;;;34.50;24.73;;;2.50;36.80;;;;;;5031287;28;20639;-59
2021/01/01 06:41:03;;;;;;;36.78;25.92;;;2.50;30.10;;;;;;5027271;28;20233;-60
2021/01/01 06:43:52;;;;;;;40.10;26.08;;;2.50;26.80;;;;;;5012201;28;20206;-58
2021/01/01 06:46:32;;;;;;;37.40;26.00;;;2.60;23.80;;;;;;5015910;28;20237;-59
2021/01/01 06:48:58;;;;;;;36.53;25.23;;;2.60;15.50;;;;;;5020394;28;20527;-60
2021/01/01 06:51:23;;;;;;;38.70;24.77;;;2.60;12.60;;;;;;5026535;28;20183;-59
2021/01/01 06:53:49;;;;;;;38.23;24.97;;;2.60;16.50;;;;;;5020067;28;20181;-58
2021/01/01 06:56:20;;;;;;;41.10;25.37;;;2.60;13.60;;;;;;5017905;28;20664;-59
2021/01/01 06:58:45;;;;;;;37.55;25.98;;;2.70;10.60;;;;;;5025748;28;20451;-60
2021/01/01 07:01:16;;;;;;;38.70;25.70;;;2.70;11.10;;;;;;5033657;28;20185;-59
2021/01/01 07:03:41;;;;;;;39.75;25.80;;;2.70;4.80;;;;;;5026895;28;20214;-59
2021/01/01 07:06:07;;;;;;;41.00;25.77;;;2.80;13.70;;;;;;5011967;28;20495;-59
2021/01/01 07:08:42;;;;;;;39.70;25.83;;;2.80;1.40;;;;;;5029678;28;20220;-59
2021/01/01 07:11:10;;;;;;;39.55;25.67;;;2.80;4.80;;;;;;5040742;28;20185;-60
2021/01/01 07:13:47;;;;;;;35.90;23.27;;;2.80;1.00;;;;;;5029251;28;20201;-60
2021/01/01 07:16:16;;;;;;;36.75;24.73;;;2.80;1.00;;;;;;5031330;28;20192;-59
2021/01/01 07:18:42;;;;;;;38.20;24.38;;;2.80;1.00;;;;;;5019614;28;20191;-59
2021/01/01 07:21:10;;;;;;;34.60;23.43;;;2.80;1.00;;;;;;5024298;28;20200;-59
2021/01/01 07:23:36;;;;;;;36.92;24.67;;;2.90;1.00;;;;;;5025617;28;20468;-59
2021/01/01 07:26:06;;;;;;;36.35;24.10;;;2.90;1.00;;;;;;5020286;28;20767;-59
2021/01/01 07:28:32;;;;;;;41.30;25.77;;;2.90;1.00;;;;;;5029734;28;20527;-60
2021/01/01 07:30:58;;;;;;;36.20;23.73;;;2.90;1.00;;;;;;5030703;28;20182;-60
2021/01/01 07:33:32;;;;;;;36.63;24.73;;;2.90;1.00;;;;;;5021894;28;20644;-57
2021/01/01 07:36:04;;;;;;;38.40;22.70;;;2.90;1.00;;;;;;5017954;28;20551;-58
2021/01/01 07:38:34;;;;;;;34.35;23.77;;;2.90;1.00;;;;;;5021380;28;20810;-57
2021/01/01 07:41:00;;;;;;;38.40;25.52;;;3.00;1.00;;;;;;5021358;28;20650;-58
2021/01/01 07:43:27;;;;;;;34.83;23.10;;;3.10;1.00;;;;;;5022055;28;20203;-58
2021/01/01 07:45:57;;;;;;;33.20;21.25;;;3.10;1.00;;;;;;5027244;28;20179;-59
2021/01/01 07:48:23;;;;;;;32.28;23.15;;;3.10;1.00;;;;;;5034240;28;20506;-58
2021/01/01 07:50:48;;;;;;;32.47;22.97;;;3.10;1.00;;;;;;5018190;28;20190;-59
2021/01/01 07:53:14;;;;;;;38.57;24.03;;;3.10;1.00;;;;;;5021565;28;20441;-61
2021/01/01 07:55:41;;;;;;;36.10;23.57;;;3.20;1.00;;;;;;5020756;28;20206;-59
2021/01/01 07:58:12;;;;;;;32.55;22.95;;;3.20;1.00;;;;;;5026419;28;20482;-59
2021/01/01 08:00:41;;;;;;;36.25;23.30;;;3.30;1.00;;;;;;5027235;28;20583;-58
2021/01/01 08:03:08;;;;;;;33.75;23.67;;;3.40;1.00;;;;;;5015636;28;20682;-59
2021/01/01 08:05:34;;;;;;;31.08;22.30;;;3.40;1.00;;;;;;5022273;28;20630;-59
2021/01/01 08:08:18;;;;;;;36.33;23.45;;;3.30;1.00;;;;;;5021105;28;20274;-59
2021/01/01 08:10:45;;;;;;;35.75;23.55;;;3.40;1.00;;;;;;5021125;28;20189;-59
2021/01/01 08:13:16;;;;;;;35.30;23.70;;;3.40;1.00;;;;;;5027810;28;20224;-59
2021/01/01 08:15:42;;;;;;;34.78;23.88;;;3.40;1.00;;;;;;5028831;28;20657;-60
2021/01/01 08:18:14;;;;;;;36.88;23.83;;;3.40;1.00;;;;;;5025942;28;20215;-59
2021/01/01 08:20:41;;;;;;;37.92;24.15;;;3.40;1.00;;;;;;5019747;28;20181;-60
2021/01/01 08:23:09;;;;;;;32.00;22.58;;;3.50;1.00;;;;;;5027948;28;20669;-60
2021/01/01 08:25:36;;;;;;;32.78;22.75;;;3.50;1.00;;;;;;5027730;28;20174;-60
2021/01/01 08:28:03;;;;;;;36.65;23.48;;;3.50;1.00;;;;;;5018302;28;20679;-60
2021/01/01 08:30:29;;;;;;;32.05;21.80;;;3.80;1.00;;;;;;5024541;28;20663;-60
2021/01/01 08:32:57;;;;;;;32.10;21.87;;;4.00;1.00;;;;;;5029062;28;20198;-61
2021/01/01 08:35:23;;;;;;;30.10;22.70;;;4.30;1.00;;;;;;5020912;28;20178;-60
2021/01/01 08:37:48;;;;;;;28.58;21.75;;;4.70;1.00;;;;;;5026444;28;20214;-60
2021/01/01 08:40:14;;;;;;;33.80;22.93;;;5.20;1.00;;;;;;5027236;28;20269;-61
2021/01/01 08:42:41;;;;;;;31.17;21.53;;;5.60;1.00;;;;;;5022014;28;20680;-60
2021/01/01 08:45:11;;;;;;;34.40;22.85;;;5.60;99.90;;;;;;5014688;28;20195;-60
2021/01/01 08:47:50;;;;;;;31.85;21.80;;;5.50;1.00;;;;;;5001424;28;20187;-60
2021/01/01 08:50:20;;;;;;;31.90;22.13;;;5.40;99.90;;;;;;5002448;28;20207;-59
2021/01/01 08:52:48;;;;;;;30.50;21.77;;;5.30;99.90;;;;;;5007321;28;20179;-59
2021/01/01 08:55:14;;;;;;;28.10;21.17;;;5.30;99.90;;;;;;5012105;28;20179;-60
2021/01/01 08:57:40;;;;;;;34.63;22.97;;;5.10;99.90;;;;;;5018136;28;20235;-58
2021/01/01 09:00:06;;;;;;;29.90;22.23;;;5.00;99.90;;;;;;5004120;28;21450;-60
2021/01/01 09:02:35;;;;;;;33.10;22.17;;;5.00;1.00;;;;;;5009005;28;20194;-60
2021/01/01 09:05:05;;;;;;;31.08;22.55;;;4.90;1.00;;;;;;5002551;28;20179;-59
2021/01/01 09:07:31;;;;;;;33.95;22.23;;;4.90;1.00;;;;;;5003605;28;20189;-60
2021/01/01 09:10:13;;;;;;;35.20;23.00;;;4.90;1.00;;;;;;5014493;28;20218;-60
2021/01/01 09:12:39;;;;;;;32.20;22.77;;;4.80;1.00;;;;;;5026128;28;20184;-60
2021/01/01 09:15:05;;;;;;;33.60;23.20;;;4.70;1.00;;;;;;5027219;28;20182;-59
2021/01/01 09:17:31;;;;;;;33.50;23.75;;;4.60;1.00;;;;;;5023636;28;20179;-60
2021/01/01 09:20:03;;;;;;;33.20;23.13;;;4.30;1.00;;;;;;5022923;28;20515;-59
2021/01/01 09:22:34;;;;;;;30.48;22.50;;;4.10;1.00;;;;;;5022689;28;20182;-59
2021/01/01 09:25:22;;;;;;;32.90;23.52;;;4.00;1.00;;;;;;5024838;28;20195;-59
2021/01/01 09:27:49;;;;;;;33.63;23.33;;;4.00;1.00;;;;;;5023132;28;20186;-56
2021/01/01 09:30:20;;;;;;;34.17;24.90;;;4.00;1.00;;;;;;5018401;28;20194;-58
2021/01/01 09:32:48;;;;;;;33.63;23.45;;;3.90;1.00;;;;;;5025903;28;20186;-59
2021/01/01 09:35:14;;;;;;;34.30;23.90;;;3.90;1.00;;;;;;5021703;28;20271;-60
2021/01/01 09:37:51;;;;;;;36.10;24.85;;;3.90;1.00;;;;;;5045498;28;20183;-56
2021/01/01 09:40:18;;;;;;;36.97;23.60;;;3.90;1.00;;;;;;5015393;28;20230;-59
2021/01/01 09:42:44;;;;;;;35.95;24.23;;;3.90;1.00;;;;;;5017791;28;20191;-58
2021/01/01 09:45:11;;;;;;;35.17;24.00;;;3.90;1.00;;;;;;5028915;28;20198;-61
2021/01/01 09:47:37;;;;;;;31.52;23.02;;;3.90;1.00;;;;;;5020650;28;20590;-59
2021/01/01 09:50:04;;;;;;;33.55;23.92;;;4.00;1.00;;;;;;5017847;28;20183;-59
2021/01/01 09:52:30;;;;;;;34.85;23.92;;;4.00;1.00;;;;;;5026235;28;20246;-59
2021/01/01 09:54:55;;;;;;;33.60;22.97;;;4.20;1.00;;;;;;5016518;28;20186;-61
2021/01/01 09:57:21;;;;;;;35.20;24.13;;;4.30;1.00;;;;;;5026059;28;20205;-62
2021/01/01 09:59:47;;;;;;;32.37;23.20;;;4.40;1.00;;;;;;5034036;28;20187;-62
2021/01/01 10:02:12;;;;;;;36.00;24.00;;;4.50;1.00;;;;;;5029167;28;20269;-62
2021/01/01 10:04:38;;;;;;;31.80;22.50;;;4.50;1.00;;;;;;5028546;28;20218;-62
2021/01/01 10:07:04;;;;;;;35.47;23.97;;;4.40;1.00;;;;;;5027221;28;20214;-61
2021/01/01 10:09:29;;;;;;;29.30;22.10;;;4.40;1.00;;;;;;5027683;28;20194;-62
2021/01/01 10:11:57;;;;;;;34.00;23.00;;;4.50;1.00;;;;;;5031347;28;20190;-62
2021/01/01 10:14:23;;;;;;;35.83;23.77;;;4.40;1.00;;;;;;5026900;28;20191;-62
2021/01/01 10:16:49;;;;;;;32.10;21.73;;;4.40;1.00;;;;;;5021198;28;20657;-63
2021/01/01 10:19:15;;;;;;;33.80;24.02;;;4.40;1.00;;;;;;5025317;28;20274;-63
2021/01/01 10:21:42;;;;;;;36.97;22.90;;;4.50;1.00;;;;;;5031618;28;20287;-63
2021/01/01 10:24:07;;;;;;;34.85;23.77;;;4.60;1.00;;;;;;5025229;28;21198;-62
2021/01/01 10:26:33;;;;;;;28.13;21.07;;;4.70;1.00;;;;;;5031412;28;20184;-62
2021/01/01 10:28:59;;;;;;;31.70;21.80;;;4.80;1.00;;;;;;5022838;28;20437;-61
2021/01/01 10:31:24;;;;;;;31.70;22.10;;;4.80;1.00;;;;;;5024972;28;20182;-62
2021/01/01 10:33:50;;;;;;;28.67;22.60;;;4.80;1.00;;;;;;5025745;28;20981;-61
2021/01/01 10:36:16;;;;;;;33.20;22.53;;;4.80;1.00;;;;;;5025381;28;20195;-62
2021/01/01 10:38:42;;;;;;;31.50;22.13;;;4.80;1.00;;;;;;5025769;28;20238;-61
2021/01/01 10:41:14;;;;;;;31.40;22.38;;;5.00;1.00;;;;;;5027772;28;20542;-62
2021/01/01 10:43:41;;;;;;;35.42;23.25;;;5.10;1.00;;;;;;5015059;28;20207;-61
2021/01/01 10:46:07;;;;;;;32.53;22.40;;;5.10;1.00;;;;;;5027345;28;20717;-61
2021/01/01 10:48:33;;;;;;;33.30;23.70;;;5.20;1.00;;;;;;5030578;28;20195;-61
2021/01/01 10:50:59;;;;;;;32.03;23.20;;;5.10;1.00;;;;;;5029115;28;20281;-60
2021/01/01 10:53:24;;;;;;;32.03;22.40;;;5.20;1.00;;;;;;5039702;28;20473;-61
2021/01/01 10:55:50;;;;;;;34.00;23.43;;;5.20;1.00;;;;;;5020013;28;20183;-61
2021/01/01 10:58:25;;;;;;;31.93;23.10;;;5.20;1.00;;;;;;5019893;28;20229;-61
2021/01/01 11:00:54;;;;;;;35.88;22.20;;;5.20;1.00;;;;;;5025043;28;20264;-61
2021/01/01 11:03:21;;;;;;;30.45;21.70;;;5.10;1.00;;;;;;5025114;28;21023;-61
2021/01/01 11:05:46;;;;;;;30.38;20.85;;;5.10;1.00;;;;;;5019165;28;20978;-61
2021/01/01 11:08:12;;;;;;;32.27;23.63;;;5.10;1.00;;;;;;5027470;28;20191;-61
2021/01/01 11:10:38;;;;;;;31.03;22.77;;;5.10;1.00;;;;;;5028235;28;20432;-61
2021/01/01 11:13:05;;;;;;;34.30;23.03;;;5.00;1.00;;;;;;5021992;28;20297;-61
2021/01/01 12:26:58;;;;;;;28.90;22.08;;;5.40;1.00;;;;;;5026828;28;20262;-62
2021/01/01 12:29:26;;;;;;;28.75;21.05;;;5.50;1.00;;;;;;5027383;28;20188;-62
2021/01/01 12:31:52;;;;;;;31.88;22.63;;;5.60;1.00;;;;;;5022947;28;20190;-61
2021/01/01 12:34:18;;;;;;;32.67;22.20;;;5.60;1.00;;;;;;5024688;28;20246;-62
2021/01/01 12:36:44;;;;;;;31.47;21.47;;;5.70;1.00;;;;;;5025750;28;20190;-61
2021/01/01 12:39:10;;;;;;;31.60;21.20;;;5.80;1.00;;;;;;5012620;28;20472;-59
2021/01/01 12:41:36;;;;;;;30.90;22.97;;;5.80;1.00;;;;;;5018411;28;21208;-61
2021/01/01 12:44:02;;;;;;;32.78;22.85;;;5.90;1.00;;;;;;5023217;28;20475;-61
2021/01/01 12:46:28;;;;;;;32.65;22.42;;;6.00;1.00;;;;;;5017339;28;20200;-61
2021/01/01 12:48:54;;;;;;;32.30;21.80;;;6.00;1.00;;;;;;5025889;28;20667;-59
2021/01/01 12:51:20;;;;;;;27.40;20.83;;;6.10;1.00;;;;;;5026149;28;20944;-61
2021/01/01 12:53:45;;;;;;;30.63;21.77;;;6.00;99.90;;;;;;5022528;28;20661;-61
2021/01/01 12:56:11;;;;;;;30.80;22.40;;;5.90;1.00;;;;;;5026471;28;20510;-61
2021/01/01 12:58:37;;;;;;;30.30;21.40;;;5.90;1.00;;;;;;5020364;28;20194;-61
2021/01/01 13:01:03;;;;;;;34.35;21.88;;;5.80;1.00;;;;;;5027410;28;20653;-61
2021/01/01 13:03:28;;;;;;;31.83;22.70;;;5.80;1.00;;;;;;5018803;28;20210;-61
2021/01/01 13:05:54;;;;;;;31.33;21.20;;;5.80;1.00;;;;;;5021062;28;20230;-61
2021/01/01 13:08:20;;;;;;;32.87;23.10;;;5.80;1.00;;;;;;5017026;28;20249;-62
2021/01/01 13:10:45;;;;;;;27.63;21.17;;;5.80;1.00;;;;;;5023231;28;20185;-59
2021/01/01 13:13:11;;;;;;;31.73;21.07;;;5.90;1.00;;;;;;5028423;28;20266;-61
2021/01/01 13:15:36;;;;;;;28.57;21.20;;;6.00;1.00;;;;;;5024148;28;20218;-60
2021/01/01 13:18:02;;;;;;;28.10;20.80;;;6.10;1.00;;;;;;5011431;28;20534;-60
2021/01/01 13:20:28;;;;;;;31.43;22.17;;;6.10;1.00;;;;;;5010422;28;20187;-60
2021/01/01 13:22:53;;;;;;;31.43;21.90;;;6.10;1.00;;;;;;5023435;28;20187;-60
2021/01/01 13:25:20;;;;;;;30.20;22.60;;;6.10;1.00;;;;;;5010509;28;20195;-60
2021/01/01 13:27:46;;;;;;;29.30;20.90;;;6.20;1.00;;;;;;5012642;28;20179;-61
2021/01/01 13:30:15;;;;;;;28.00;20.08;;;6.20;1.00;;;;;;5014363;28;20262;-61
2021/01/01 13:32:41;;;;;;;24.98;19.80;;;6.20;1.00;;;;;;5016871;28;20650;-60
2021/01/01 13:35:07;;;;;;;30.10;21.10;;;6.20;99.90;;;;;;5018215;28;20180;-60
2021/01/01 13:37:32;;;;;;;29.20;20.48;;;6.30;99.90;;;;;;5023030;28;20188;-61
2021/01/01 13:40:02;;;;;;;30.90;21.47;;;6.30;1.00;;;;;;5023941;28;20686;-60
2021/01/01 13:42:28;;;;;;;27.70;20.05;;;6.30;99.90;;;;;;5011404;28;20262;-61
2021/01/01 13:44:53;;;;;;;30.17;21.90;;;6.30;1.00;;;;;;5024276;28;20552;-61
2021/01/01 13:47:19;;;;;;;27.23;20.67;;;6.20;1.00;;;;;;5019902;28;20191;-61
2021/01/01 13:49:45;;;;;;;28.33;22.13;;;6.20;1.00;;;;;;5025126;28;20664;-61
2021/01/01 13:52:11;;;;;;;30.37;21.70;;;6.30;1.00;;;;;;5020935;28;20245;-61
2021/01/01 13:54:37;;;;;;;27.10;20.50;;;6.30;1.00;;;;;;5023882;28;20199;-61
2021/01/01 13:57:03;;;;;;;30.77;21.40;;;6.40;1.00;;;;;;5021306;28;20660;-61
2021/01/01 13:59:28;;;;;;;29.20;20.33;;;6.50;99.90;;;;;;5018039;28;20175;-61